createdAt,value
2023-04-09T00:00:17.712Z,8.50
2023-04-09T00:02:44.589Z,8.50
2023-04-09T00:05:18.371Z,8.50
2023-04-09T00:07:45.751Z,8.50
2023-04-09T00:10:12.872Z,8.50
2023-04-09T00:12:40.129Z,8.50
2023-04-09T00:15:09.659Z,8.50
2023-04-09T00:17:38.117Z,8.50
2023-04-09T00:20:05.765Z,8.60
2023-04-09T00:22:32.510Z,8.60
2023-04-09T00:24:59.286Z,8.60
2023-04-09T00:27:26.458Z,8.50
2023-04-09T00:29:54.674Z,8.50
2023-04-09T00:32:21.495Z,8.50
2023-04-09T00:34:48.640Z,8.50
2023-04-09T00:37:15.562Z,8.50
2023-04-09T00:39:42.311Z,8.50
2023-04-09T00:42:09.080Z,8.40
2023-04-09T00:44:36.015Z,8.40
2023-04-09T00:47:03.005Z,8.40
2023-04-09T00:49:30.289Z,8.40
2023-04-09T00:51:57.144Z,8.40
2023-04-09T00:54:23.883Z,8.40
2023-04-09T00:56:51.002Z,8.50
2023-04-09T00:59:18.118Z,8.50
2023-04-09T01:01:45.465Z,8.50
2023-04-09T01:04:12.302Z,8.40
2023-04-09T01:06:45.508Z,8.40
2023-04-09T01:09:18.072Z,8.40
2023-04-09T01:11:50.997Z,8.40
2023-04-09T01:14:30.822Z,8.40
2023-04-09T01:17:04.292Z,8.30
2023-04-09T01:19:43.516Z,8.30
2023-04-09T01:22:19.780Z,8.30
2023-04-09T01:24:56.983Z,8.30
2023-04-09T01:27:37.751Z,8.40
2023-04-09T01:30:05.215Z,8.40
2023-04-09T01:32:35.508Z,8.30
2023-04-09T01:35:03.066Z,8.30
2023-04-09T01:37:29.878Z,8.40
2023-04-09T01:39:56.927Z,8.40
2023-04-09T01:42:26.345Z,8.40
2023-04-09T01:44:53.709Z,8.30
2023-04-09T01:47:21.298Z,8.40
2023-04-09T01:49:48.108Z,8.40
2023-04-09T01:52:15.294Z,8.40
2023-04-09T01:54:42.637Z,8.40
2023-04-09T01:57:09.775Z,8.40
2023-04-09T01:59:36.512Z,8.30
2023-04-09T02:02:09.468Z,8.30
2023-04-09T02:04:41.826Z,8.40
2023-04-09T02:07:20.860Z,8.30
2023-04-09T02:09:47.916Z,8.40
2023-04-09T02:12:17.468Z,8.40
2023-04-09T02:14:46.421Z,8.30
2023-04-09T02:17:13.610Z,8.40
2023-04-09T02:19:45.000Z,8.30
2023-04-09T02:22:12.399Z,8.40
2023-04-09T02:24:40.414Z,8.40
2023-04-09T02:27:07.292Z,8.30
2023-04-09T02:29:34.239Z,8.30
2023-04-09T02:32:01.410Z,8.30
2023-04-09T02:34:28.238Z,8.30
2023-04-09T02:36:55.491Z,8.30
2023-04-09T02:39:22.306Z,8.30
2023-04-09T02:41:49.206Z,8.30
2023-04-09T02:44:16.167Z,8.30
2023-04-09T02:46:44.635Z,8.30
2023-04-09T02:49:11.426Z,8.30
2023-04-09T02:51:38.173Z,8.30
2023-04-09T02:54:05.061Z,8.30
2023-04-09T02:56:32.233Z,8.30
2023-04-09T02:58:59.146Z,8.30
2023-04-09T03:01:27.210Z,8.30
2023-04-09T03:03:54.526Z,8.30
2023-04-09T03:06:21.726Z,8.30
2023-04-09T03:08:48.594Z,8.30
2023-04-09T03:11:15.891Z,8.30
2023-04-09T03:13:42.693Z,8.30
2023-04-09T03:16:10.372Z,8.30
2023-04-09T03:18:37.316Z,8.30
2023-04-09T03:21:07.824Z,8.30
2023-04-09T03:23:37.225Z,8.30
2023-04-09T03:26:06.414Z,8.30
2023-04-09T03:28:45.445Z,8.30
2023-04-09T03:31:13.922Z,8.30
2023-04-09T03:33:42.302Z,8.30
2023-04-09T03:36:10.073Z,8.30
2023-04-09T03:39:00.340Z,8.30
2023-04-09T03:41:47.606Z,8.30
2023-04-09T03:44:16.788Z,8.30
2023-04-09T03:46:56.353Z,8.30
2023-04-09T03:49:24.609Z,8.30
2023-04-09T03:51:52.031Z,8.30
2023-04-09T03:54:19.515Z,8.30
2023-04-09T03:56:46.889Z,8.30
2023-04-09T03:59:16.057Z,8.20
2023-04-09T04:01:47.336Z,8.20
2023-04-09T04:04:14.715Z,8.20
2023-04-09T04:06:50.100Z,8.20
2023-04-09T04:09:24.854Z,8.20
2023-04-09T04:12:06.905Z,8.20
2023-04-09T04:15:06.185Z,8.20
2023-04-09T04:17:45.470Z,8.20
2023-04-09T04:20:35.968Z,8.20
2023-04-09T04:23:07.926Z,8.20
2023-04-09T04:25:40.618Z,8.20
2023-04-09T04:28:07.648Z,8.20
2023-04-09T04:30:41.511Z,8.20
2023-04-09T04:33:09.082Z,8.10
2023-04-09T04:35:43.243Z,8.10
2023-04-09T04:38:24.981Z,8.10
2023-04-09T04:40:52.676Z,8.10
2023-04-09T04:43:20.904Z,8.20
2023-04-09T04:45:48.629Z,8.20
2023-04-09T04:48:15.552Z,8.20
2023-04-09T04:50:42.343Z,8.20
2023-04-09T04:53:09.808Z,8.20
2023-04-09T04:55:44.296Z,8.20
2023-04-09T04:58:14.274Z,8.30
2023-04-09T05:00:46.390Z,8.20
2023-04-09T05:03:13.996Z,8.20
2023-04-09T05:06:01.711Z,8.20
2023-04-09T05:08:35.741Z,8.20
2023-04-09T05:11:02.541Z,8.20
2023-04-09T05:13:35.608Z,8.20
2023-04-09T05:16:06.417Z,8.20
2023-04-09T05:18:34.570Z,8.20
2023-04-09T05:21:01.906Z,8.10
2023-04-09T05:23:30.990Z,8.20
2023-04-09T05:25:57.744Z,8.20
2023-04-09T05:28:33.780Z,8.20
2023-04-09T05:31:13.374Z,8.20
2023-04-09T05:33:46.383Z,8.20
2023-04-09T05:36:18.968Z,8.20
2023-04-09T05:38:49.004Z,8.20
2023-04-09T05:41:16.164Z,8.20
2023-04-09T05:44:01.429Z,8.20
2023-04-09T05:46:29.246Z,8.20
2023-04-09T05:48:56.674Z,8.20
2023-04-09T05:51:25.527Z,8.20
2023-04-09T05:53:52.672Z,8.20
2023-04-09T05:56:19.667Z,8.20
2023-04-09T05:58:52.821Z,8.20
2023-04-09T06:01:22.902Z,8.20
2023-04-09T06:03:50.092Z,8.20
2023-04-09T06:06:17.405Z,8.20
2023-04-09T06:08:45.261Z,8.20
2023-04-09T06:11:12.356Z,8.20
2023-04-09T06:13:39.292Z,8.20
2023-04-09T06:16:06.661Z,8.20
2023-04-09T06:18:33.521Z,8.20
2023-04-09T06:21:04.114Z,8.20
2023-04-09T06:23:31.028Z,8.20
2023-04-09T06:25:58.024Z,8.20
2023-04-09T06:28:24.879Z,8.20
2023-04-09T06:30:55.299Z,8.20
2023-04-09T06:33:22.414Z,8.20
2023-04-09T06:35:49.322Z,8.20
2023-04-09T06:38:16.432Z,8.20
2023-04-09T06:40:43.475Z,8.10
2023-04-09T06:43:10.873Z,8.20
2023-04-09T06:45:43.824Z,8.20
2023-04-09T06:48:11.104Z,8.20
2023-04-09T06:50:37.988Z,8.20
2023-04-09T06:53:06.303Z,8.20
2023-04-09T06:55:33.327Z,8.20
2023-04-09T06:58:00.339Z,8.10
2023-04-09T07:00:27.353Z,8.10
2023-04-09T07:02:55.684Z,8.10
2023-04-09T07:05:23.992Z,8.10
2023-04-09T07:07:50.751Z,8.10
2023-04-09T07:10:17.588Z,8.10
2023-04-09T07:12:44.569Z,8.10
2023-04-09T07:15:11.499Z,8.10
2023-04-09T07:17:38.578Z,8.10
2023-04-09T07:20:05.809Z,8.10
2023-04-09T07:22:32.616Z,8.00
2023-04-09T07:24:59.543Z,8.10
2023-04-09T07:27:27.596Z,8.10
2023-04-09T07:29:55.558Z,8.10
2023-04-09T07:32:22.537Z,8.20
2023-04-09T07:34:52.616Z,8.20
2023-04-09T07:37:19.860Z,8.20
2023-04-09T07:39:47.527Z,8.20
2023-04-09T07:42:14.490Z,8.30
2023-04-09T07:44:41.375Z,8.30
2023-04-09T07:47:09.223Z,8.40
2023-04-09T07:49:36.361Z,8.40
2023-04-09T07:52:03.866Z,8.40
2023-04-09T07:54:33.666Z,8.40
2023-04-09T07:57:01.882Z,8.30
2023-04-09T07:59:29.629Z,8.30
2023-04-09T08:01:56.781Z,8.30
2023-04-09T08:04:23.754Z,8.40
2023-04-09T08:06:51.457Z,8.40
2023-04-09T08:09:18.615Z,8.40
2023-04-09T08:11:46.085Z,8.50
2023-04-09T08:14:13.265Z,8.50
2023-04-09T08:16:41.643Z,8.60
2023-04-09T08:19:08.796Z,8.50
2023-04-09T08:21:39.278Z,8.50
2023-04-09T08:24:07.123Z,8.60
2023-04-09T08:26:33.967Z,8.60
2023-04-09T08:29:00.930Z,8.70
2023-04-09T08:31:27.748Z,8.60
2023-04-09T08:33:54.707Z,8.60
2023-04-09T08:36:21.759Z,8.60
2023-04-09T08:38:48.795Z,8.70
2023-04-09T08:41:24.430Z,8.70
2023-04-09T08:43:58.397Z,8.70
2023-04-09T08:46:26.518Z,8.80
2023-04-09T08:48:54.223Z,8.90
2023-04-09T08:51:22.577Z,8.90
2023-04-09T08:53:53.451Z,8.90
2023-04-09T08:56:21.907Z,9.00
2023-04-09T08:58:48.736Z,9.00
2023-04-09T09:01:19.936Z,9.00
2023-04-09T09:03:54.262Z,9.00
2023-04-09T09:06:22.422Z,9.00
2023-04-09T09:09:04.954Z,9.10
2023-04-09T09:11:31.869Z,9.10
2023-04-09T09:14:02.990Z,9.10
2023-04-09T09:16:30.206Z,9.10
2023-04-09T09:18:57.442Z,9.20
2023-04-09T09:21:25.035Z,9.20
2023-04-09T09:23:52.034Z,9.30
2023-04-09T09:26:24.608Z,9.30
2023-04-09T09:28:52.112Z,9.40
2023-04-09T09:31:20.448Z,9.40
2023-04-09T09:33:48.393Z,9.40
2023-04-09T09:36:19.053Z,9.40
2023-04-09T09:38:56.123Z,9.40
2023-04-09T09:41:23.352Z,9.40
2023-04-09T09:43:50.809Z,9.50
2023-04-09T09:46:17.783Z,9.60
2023-04-09T09:48:46.246Z,9.50
2023-04-09T09:51:13.735Z,9.60
2023-04-09T09:53:42.374Z,9.70
2023-04-09T09:56:14.791Z,9.70
2023-04-09T09:58:44.450Z,9.70
2023-04-09T10:01:13.040Z,9.70
2023-04-09T10:03:40.904Z,9.80
2023-04-09T10:06:08.130Z,9.80
2023-04-09T10:08:37.914Z,9.90
2023-04-09T10:11:05.896Z,9.90
2023-04-09T10:13:38.762Z,10.00
2023-04-09T10:16:07.260Z,10.00
2023-04-09T10:18:34.681Z,10.10
2023-04-09T10:21:20.341Z,10.10
2023-04-09T10:23:49.321Z,10.20
2023-04-09T10:26:17.974Z,10.20
2023-04-09T10:28:44.792Z,10.20
2023-04-09T10:31:11.928Z,10.20
2023-04-09T10:33:39.085Z,10.20
2023-04-09T10:36:10.016Z,10.30
2023-04-09T10:38:38.397Z,10.40
2023-04-09T10:41:10.382Z,10.50
2023-04-09T10:43:37.337Z,10.50
2023-04-09T10:46:23.166Z,10.50
2023-04-09T10:48:50.109Z,10.50
2023-04-09T10:51:20.137Z,10.50
2023-04-09T10:53:46.926Z,10.50
2023-04-09T10:56:17.242Z,10.50
2023-04-09T10:58:44.055Z,10.50
2023-04-09T11:01:10.933Z,10.60
2023-04-09T11:03:42.906Z,10.60
2023-04-09T11:06:11.193Z,10.60
2023-04-09T11:08:38.817Z,10.70
2023-04-09T11:11:06.074Z,10.80
2023-04-09T11:13:34.101Z,10.80
2023-04-09T11:16:03.422Z,10.90
2023-04-09T11:18:30.837Z,11.00
2023-04-09T11:21:03.194Z,11.00
2023-04-09T11:23:31.509Z,11.00
2023-04-09T11:25:58.379Z,11.00
2023-04-09T11:28:26.105Z,11.00
2023-04-09T11:30:53.378Z,11.10
2023-04-09T11:33:20.700Z,11.20
2023-04-09T11:35:48.043Z,11.20
2023-04-09T11:38:14.936Z,11.30
2023-04-09T11:40:48.107Z,11.40
2023-04-09T11:43:20.758Z,11.50
2023-04-09T11:45:48.591Z,11.60
2023-04-09T11:48:18.110Z,11.60
2023-04-09T11:50:45.738Z,11.70
2023-04-09T11:53:17.061Z,11.70
2023-04-09T11:55:46.935Z,11.80
2023-04-09T11:58:13.713Z,11.90
2023-04-09T12:00:40.953Z,12.00
2023-04-09T12:03:08.065Z,12.00
2023-04-09T12:05:35.618Z,12.00
2023-04-09T12:08:08.019Z,12.00
2023-04-09T12:10:36.415Z,12.10
2023-04-09T12:13:04.172Z,12.20
2023-04-09T12:15:32.179Z,12.20
2023-04-09T12:17:59.595Z,12.30
2023-04-09T12:20:30.528Z,12.30
2023-04-09T12:22:57.656Z,12.40
2023-04-09T12:25:24.415Z,12.30
2023-04-09T12:27:54.278Z,12.30
2023-04-09T12:30:21.152Z,12.40
2023-04-09T12:32:47.944Z,12.40
2023-04-09T12:35:15.621Z,12.40
2023-04-09T12:37:42.710Z,12.50
2023-04-09T12:40:09.973Z,12.60
2023-04-09T12:42:36.721Z,12.60
2023-04-09T12:45:03.607Z,12.70
2023-04-09T12:47:30.513Z,12.70
2023-04-09T12:49:57.364Z,12.70
2023-04-09T12:52:24.777Z,12.80
2023-04-09T12:54:52.304Z,12.80
2023-04-09T12:57:19.054Z,12.90
2023-04-09T12:59:45.936Z,12.90
2023-04-09T13:02:12.974Z,12.90
2023-04-09T13:04:40.077Z,13.00
2023-04-09T13:07:07.133Z,13.10
2023-04-09T13:09:35.242Z,13.10
2023-04-09T13:12:02.226Z,13.10
2023-04-09T13:14:29.100Z,13.20
2023-04-09T13:16:56.057Z,13.20
2023-04-09T13:19:22.839Z,13.30
2023-04-09T13:21:49.627Z,13.20
2023-04-09T13:24:16.620Z,13.20
2023-04-09T13:26:43.405Z,13.10
2023-04-09T13:29:10.257Z,13.10
2023-04-09T13:31:37.247Z,13.10
2023-04-09T13:34:04.152Z,13.10
2023-04-09T13:36:31.587Z,13.00
2023-04-09T13:39:04.237Z,13.00
2023-04-09T13:41:34.331Z,13.10
2023-04-09T13:44:01.594Z,13.10
2023-04-09T13:46:28.557Z,13.20
2023-04-09T13:48:55.435Z,13.20
2023-04-09T13:51:22.632Z,13.30
2023-04-09T13:53:49.699Z,13.30
2023-04-09T13:56:16.540Z,13.30
2023-04-09T13:58:43.790Z,13.20
2023-04-09T14:01:11.517Z,13.20
2023-04-09T14:03:40.169Z,13.20
2023-04-09T14:06:08.736Z,13.30
2023-04-09T14:08:35.969Z,13.30
2023-04-09T14:11:02.862Z,13.40
2023-04-09T14:13:29.753Z,13.40
2023-04-09T14:15:59.176Z,13.50
2023-04-09T14:18:27.122Z,13.50
2023-04-09T14:20:53.912Z,13.40
2023-04-09T14:23:20.750Z,13.30
2023-04-09T14:25:47.511Z,13.30
2023-04-09T14:28:14.382Z,13.40
2023-04-09T14:30:41.399Z,13.40
2023-04-09T14:33:08.285Z,13.40
2023-04-09T14:35:35.475Z,13.40
2023-04-09T14:38:04.412Z,13.40
2023-04-09T14:40:31.980Z,13.40
2023-04-09T14:42:59.151Z,13.50
2023-04-09T14:45:26.002Z,13.50
2023-04-09T14:47:53.600Z,13.50
2023-04-09T14:50:20.602Z,13.60
2023-04-09T14:52:48.247Z,13.60
2023-04-09T14:55:15.337Z,13.70
2023-04-09T14:57:42.501Z,13.70
2023-04-09T15:00:10.368Z,13.70
2023-04-09T15:02:38.620Z,13.70
2023-04-09T15:05:05.862Z,13.70
2023-04-09T15:07:32.850Z,13.70
2023-04-09T15:09:59.847Z,13.60
2023-04-09T15:12:32.741Z,13.60
2023-04-09T15:14:59.578Z,13.60
2023-04-09T15:17:27.116Z,13.60
2023-04-09T15:19:54.325Z,13.60
2023-04-09T15:22:21.494Z,13.60
2023-04-09T15:24:48.894Z,13.60
2023-04-09T15:27:16.094Z,13.70
2023-04-09T15:29:43.503Z,13.70
2023-04-09T15:32:10.624Z,13.80
2023-04-09T15:34:37.785Z,13.80
2023-04-09T15:37:04.596Z,13.80
2023-04-09T15:39:32.508Z,13.80
2023-04-09T15:41:59.433Z,13.80
2023-04-09T15:44:26.509Z,13.70
2023-04-09T15:46:53.697Z,13.80
2023-04-09T15:49:20.576Z,13.70
2023-04-09T15:51:48.262Z,13.70
2023-04-09T15:54:15.001Z,13.70
2023-04-09T15:56:42.213Z,13.60
2023-04-09T15:59:09.037Z,13.70
2023-04-09T16:01:36.370Z,13.70
2023-04-09T16:04:03.891Z,13.70
2023-04-09T16:06:30.862Z,13.70
2023-04-09T16:08:57.707Z,13.70
2023-04-09T16:11:24.498Z,13.60
2023-04-09T16:13:51.394Z,13.60
2023-04-09T16:16:19.065Z,13.60
2023-04-09T16:18:46.044Z,13.60
2023-04-09T16:21:12.857Z,13.60
2023-04-09T16:23:39.948Z,13.60
2023-04-09T16:26:07.932Z,13.50
2023-04-09T16:28:34.678Z,13.60
2023-04-09T16:31:01.622Z,13.50
2023-04-09T16:33:28.452Z,13.50
2023-04-09T16:35:55.341Z,13.60
2023-04-09T16:38:23.665Z,13.60
2023-04-09T16:40:50.692Z,13.50
2023-04-09T16:43:17.444Z,13.60
2023-04-09T16:45:44.279Z,13.60
2023-04-09T16:48:12.574Z,13.50
2023-04-09T16:50:40.016Z,13.50
2023-04-09T16:53:07.432Z,13.50
2023-04-09T16:55:34.567Z,13.50
2023-04-09T16:58:01.605Z,13.50
2023-04-09T17:00:28.556Z,13.40
2023-04-09T17:02:57.955Z,13.30
2023-04-09T17:05:24.983Z,13.30
2023-04-09T17:07:53.586Z,13.30
2023-04-09T17:10:20.930Z,13.30
2023-04-09T17:12:48.180Z,13.20
2023-04-09T17:15:15.261Z,13.20
2023-04-09T17:17:43.570Z,13.20
2023-04-09T17:20:10.758Z,13.20
2023-04-09T17:22:38.284Z,13.20
2023-04-09T17:25:05.163Z,13.10
2023-04-09T17:27:32.116Z,13.10
2023-04-09T17:29:58.903Z,13.10
2023-04-09T17:32:26.028Z,13.10
2023-04-09T17:34:52.995Z,13.00
2023-04-09T17:37:19.834Z,13.00
2023-04-09T17:39:46.590Z,12.90
2023-04-09T17:42:13.677Z,12.90
2023-04-09T17:44:41.244Z,12.90
2023-04-09T17:47:08.663Z,12.80
2023-04-09T17:49:35.502Z,12.80
2023-04-09T17:52:02.355Z,12.70
2023-04-09T17:54:33.586Z,12.70
2023-04-09T17:57:01.617Z,12.60
2023-04-09T17:59:28.982Z,12.60
2023-04-09T18:01:56.773Z,12.60
2023-04-09T18:04:24.593Z,12.50
2023-04-09T18:06:51.784Z,12.50
2023-04-09T18:09:19.599Z,12.50
2023-04-09T18:11:46.468Z,12.50
2023-04-09T18:14:13.253Z,12.40
2023-04-09T18:16:40.149Z,12.50
2023-04-09T18:19:07.184Z,12.40
2023-04-09T18:21:37.613Z,12.30
2023-04-09T18:24:04.679Z,12.40
2023-04-09T18:26:33.344Z,12.30
2023-04-09T18:29:01.390Z,12.30
2023-04-09T18:31:28.571Z,12.30
2023-04-09T18:33:56.104Z,12.20
2023-04-09T18:36:22.825Z,12.20
2023-04-09T18:38:49.563Z,12.20
2023-04-09T18:41:23.158Z,12.10
2023-04-09T18:43:50.058Z,12.10
2023-04-09T18:46:18.216Z,12.00
2023-04-09T18:48:46.999Z,11.90
2023-04-09T18:51:14.494Z,11.90
2023-04-09T18:53:42.050Z,11.90
2023-04-09T18:56:09.305Z,11.80
2023-04-09T18:58:36.678Z,11.80
2023-04-09T19:01:10.814Z,11.70
2023-04-09T19:03:38.091Z,11.70
2023-04-09T19:06:18.663Z,11.70
2023-04-09T19:08:46.360Z,11.70
2023-04-09T19:11:13.722Z,11.60
2023-04-09T19:13:40.532Z,11.60
2023-04-09T19:16:09.400Z,11.60
2023-04-09T19:18:37.055Z,11.50
2023-04-09T19:21:04.847Z,11.50
2023-04-09T19:23:31.732Z,11.50
2023-04-09T19:25:58.597Z,11.50
2023-04-09T19:28:25.397Z,11.40
2023-04-09T19:30:52.563Z,11.30
2023-04-09T19:33:23.168Z,11.30
2023-04-09T19:35:50.630Z,11.20
2023-04-09T19:38:18.269Z,11.20
2023-04-09T19:40:45.574Z,11.10
2023-04-09T19:43:12.651Z,11.10
2023-04-09T19:45:40.268Z,11.10
2023-04-09T19:48:07.211Z,11.00
2023-04-09T19:50:34.706Z,10.90
2023-04-09T19:53:01.463Z,10.90
2023-04-09T19:55:29.372Z,10.80
2023-04-09T19:57:56.655Z,10.80
2023-04-09T20:00:23.477Z,10.70
2023-04-09T20:02:50.422Z,10.70
2023-04-09T20:05:20.929Z,10.70
2023-04-09T20:07:48.447Z,10.60
2023-04-09T20:10:15.634Z,10.60
2023-04-09T20:12:42.952Z,10.50
2023-04-09T20:15:10.107Z,10.50
2023-04-09T20:17:37.119Z,10.50
2023-04-09T20:20:04.938Z,10.50
2023-04-09T20:22:31.733Z,10.40
2023-04-09T20:25:00.488Z,10.40
2023-04-09T20:27:28.250Z,10.40
2023-04-09T20:29:55.073Z,10.30
2023-04-09T20:32:22.645Z,10.30
2023-04-09T20:34:49.655Z,10.30
2023-04-09T20:37:16.798Z,10.20
2023-04-09T20:39:43.528Z,10.20
2023-04-09T20:42:10.295Z,10.20
2023-04-09T20:44:38.165Z,10.10
2023-04-09T20:47:05.099Z,10.10
2023-04-09T20:49:31.971Z,10.00
2023-04-09T20:51:59.482Z,9.90
2023-04-09T20:54:26.361Z,9.90
2023-04-09T20:56:53.146Z,9.90
2023-04-09T20:59:19.973Z,9.80
2023-04-09T21:01:46.774Z,9.70
2023-04-09T21:04:14.890Z,9.70
2023-04-09T21:06:41.912Z,9.70
2023-04-09T21:09:09.065Z,9.70
2023-04-09T21:11:36.210Z,9.70
2023-04-09T21:14:04.120Z,9.60
2023-04-09T21:16:31.198Z,9.60
2023-04-09T21:18:58.465Z,9.60
2023-04-09T21:21:27.413Z,9.50
2023-04-09T21:23:54.296Z,9.60
2023-04-09T21:26:21.107Z,9.50
2023-04-09T21:28:50.502Z,9.50
2023-04-09T21:31:17.699Z,9.50
2023-04-09T21:33:44.533Z,9.50
2023-04-09T21:36:11.417Z,9.50
2023-04-09T21:38:38.311Z,9.50
2023-04-09T21:41:05.226Z,9.50
2023-04-09T21:43:32.365Z,9.50
2023-04-09T21:45:59.483Z,9.40
2023-04-09T21:48:30.627Z,9.40
2023-04-09T21:50:58.251Z,9.40
2023-04-09T21:53:25.077Z,9.40
2023-04-09T21:55:51.990Z,9.40
2023-04-09T21:58:18.673Z,9.40
2023-04-09T22:00:45.471Z,9.30
2023-04-09T22:03:12.613Z,9.30
2023-04-09T22:05:39.505Z,9.30
2023-04-09T22:08:07.251Z,9.30
2023-04-09T22:10:34.024Z,9.30
2023-04-09T22:13:01.175Z,9.30
2023-04-09T22:15:28.001Z,9.30
2023-04-09T22:17:54.877Z,9.20
2023-04-09T22:20:24.419Z,9.20
2023-04-09T22:22:51.224Z,9.20
2023-04-09T22:25:18.078Z,9.20
2023-04-09T22:27:44.893Z,9.20
2023-04-09T22:30:11.818Z,9.10
2023-04-09T22:32:38.707Z,9.10
2023-04-09T22:35:06.717Z,9.10
2023-04-09T22:37:33.492Z,9.10
2023-04-09T22:40:00.264Z,9.10
2023-04-09T22:42:27.425Z,9.10
2023-04-09T22:44:54.366Z,9.10
2023-04-09T22:47:21.277Z,9.10
2023-04-09T22:49:52.896Z,9.10
2023-04-09T22:52:19.846Z,9.10
2023-04-09T22:54:46.766Z,9.00
2023-04-09T22:57:13.631Z,9.00
2023-04-09T22:59:41.110Z,9.00
2023-04-09T23:02:08.256Z,9.00
2023-04-09T23:04:35.653Z,9.00
2023-04-09T23:07:02.650Z,9.00
2023-04-09T23:09:32.681Z,9.00
2023-04-09T23:11:59.798Z,9.00
2023-04-09T23:14:26.652Z,8.90
2023-04-09T23:16:54.255Z,8.90
2023-04-09T23:19:21.063Z,8.90
2023-04-09T23:21:47.795Z,8.90
2023-04-09T23:24:14.576Z,8.90
2023-04-09T23:26:41.364Z,8.80
2023-04-09T23:29:08.117Z,8.80
2023-04-09T23:31:36.268Z,8.80
2023-04-09T23:34:03.049Z,8.80
2023-04-09T23:36:29.786Z,8.80
2023-04-09T23:38:56.683Z,8.80
2023-04-09T23:41:23.470Z,8.80
2023-04-09T23:43:50.923Z,8.70
2023-04-09T23:46:17.747Z,8.70
2023-04-09T23:48:44.504Z,8.70
2023-04-09T23:51:16.658Z,8.70
2023-04-09T23:53:43.448Z,8.70
2023-04-09T23:56:10.198Z,8.70
2023-04-09T23:58:36.936Z,8.60
